Time;durP1;ratioP1;P1;durP2;ratioP2;P2;SDS_P1;SDS_P2;PMS_P1;PMS_P2;Temp;Humidity;BMP_temperature;BMP_pressure;BME280_temperature;BME280_humidity;BME280_pressure;Samples;Min_cycle;Max_cycle;Signal;HPM_P1;HPM_P2
2021/01/19 00:00:28;;;;;;;3.28;2.90;;;1.20;96.10;;;;;;5052407;28;20227;-77
2021/01/19 00:02:54;;;;;;;3.45;3.00;;;1.20;96.10;;;;;;5052348;28;20691;-78
2021/01/19 00:05:21;;;;;;;3.85;3.00;;;1.20;96.10;;;;;;5051955;28;20257;-77
2021/01/19 00:07:48;;;;;;;9.27;3.83;;;1.10;96.00;;;;;;5052021;28;20641;-77
2021/01/19 00:10:14;;;;;;;3.38;3.05;;;1.10;96.00;;;;;;5052108;28;20219;-77
2021/01/19 00:12:41;;;;;;;3.13;2.90;;;1.10;96.00;;;;;;5052726;28;20253;-78
2021/01/19 00:15:08;;;;;;;6.22;3.25;;;1.10;95.90;;;;;;5051945;28;20250;-78
2021/01/19 00:17:35;;;;;;;9.88;3.88;;;1.10;96.00;;;;;;5050662;28;20196;-77
2021/01/19 00:20:01;;;;;;;3.63;3.33;;;1.10;95.90;;;;;;5051536;28;20204;-78
2021/01/19 00:22:29;;;;;;;3.10;2.80;;;1.10;95.80;;;;;;5050890;28;20250;-77
2021/01/19 00:24:55;;;;;;;5.40;3.10;;;1.00;95.80;;;;;;5052255;28;20207;-77
2021/01/19 00:27:22;;;;;;;4.15;3.75;;;1.10;96.00;;;;;;5031639;28;20260;-77
2021/01/19 00:29:48;;;;;;;5.00;3.00;;;1.10;96.10;;;;;;5042008;28;20223;-78
2021/01/19 00:32:14;;;;;;;4.07;2.95;;;1.00;96.30;;;;;;5051763;28;20685;-77
2021/01/19 00:34:41;;;;;;;3.70;3.08;;;1.00;96.00;;;;;;5051476;28;20257;-77
2021/01/19 00:37:08;;;;;;;5.05;3.25;;;0.90;96.00;;;;;;5051461;28;20234;-78
2021/01/19 00:39:35;;;;;;;6.90;3.30;;;1.10;96.20;;;;;;5051976;28;20200;-77
2021/01/19 00:42:01;;;;;;;3.67;3.20;;;1.10;96.30;;;;;;5051650;28;20204;-78
2021/01/19 00:44:28;;;;;;;3.65;3.35;;;1.10;96.00;;;;;;5051450;28;20220;-77
2021/01/19 00:46:55;;;;;;;4.28;3.13;;;1.20;96.00;;;;;;5030813;28;20708;-77
2021/01/19 00:49:21;;;;;;;4.43;3.30;;;1.20;95.70;;;;;;5038869;28;20204;-77
2021/01/19 00:51:47;;;;;;;5.70;3.55;;;1.10;95.60;;;;;;5051733;28;20293;-77
2021/01/19 00:54:15;;;;;;;4.40;3.53;;;1.20;95.70;;;;;;5051712;28;20239;-77
2021/01/19 00:56:44;;;;;;;3.28;2.88;;;1.30;95.90;;;;;;5051726;28;20203;-77
2021/01/19 00:59:10;;;;;;;5.65;3.88;;;1.30;95.80;;;;;;5050627;28;20235;-77
2021/01/19 01:01:45;;;;;;;4.88;3.60;;;1.40;95.90;;;;;;5051207;28;20263;-77
2021/01/19 01:04:12;;;;;;;4.45;3.80;;;1.30;95.30;;;;;;5051125;28;20208;-77
2021/01/19 01:06:38;;;;;;;8.00;3.70;;;1.30;95.30;;;;;;5051554;28;20622;-77
2021/01/19 01:09:05;;;;;;;5.70;3.50;;;1.20;95.50;;;;;;5050215;28;20231;-78
2021/01/19 01:11:36;;;;;;;6.10;4.45;;;1.20;95.60;;;;;;5051512;28;20281;-77
2021/01/19 01:14:04;;;;;;;4.30;3.90;;;1.40;95.70;;;;;;5051016;28;20295;-77
2021/01/19 01:16:31;;;;;;;4.47;3.13;;;1.30;95.30;;;;;;5050580;28;20661;-77
2021/01/19 01:18:58;;;;;;;4.32;3.67;;;1.20;95.20;;;;;;5050101;28;20257;-77
2021/01/19 01:21:24;;;;;;;4.60;3.42;;;1.30;95.60;;;;;;5050793;28;20223;-77
2021/01/19 01:23:51;;;;;;;6.65;4.07;;;1.30;95.60;;;;;;5050233;28;20235;-77
2021/01/19 01:26:18;;;;;;;5.88;3.67;;;1.30;95.30;;;;;;5050760;28;20284;-78
2021/01/19 01:28:45;;;;;;;3.85;3.05;;;1.50;95.30;;;;;;5050299;28;20199;-78
2021/01/19 01:31:13;;;;;;;4.47;3.88;;;1.30;95.30;;;;;;5050672;28;20204;-77
2021/01/19 01:33:39;;;;;;;4.20;3.67;;;1.00;94.90;;;;;;5050666;28;20203;-77
2021/01/19 01:36:06;;;;;;;5.00;3.55;;;0.90;95.70;;;;;;5050641;28;20232;-78
2021/01/19 01:38:32;;;;;;;3.55;3.25;;;1.00;95.60;;;;;;5050034;28;20235;-77
2021/01/19 01:40:59;;;;;;;7.88;3.40;;;0.90;95.50;;;;;;5049945;28;20596;-77
2021/01/19 01:43:25;;;;;;;3.40;3.20;;;0.90;95.60;;;;;;5050098;28;20197;-77
2021/01/19 01:45:52;;;;;;;4.75;3.33;;;0.90;96.10;;;;;;5050583;28;20192;-77
2021/01/19 01:48:19;;;;;;;3.78;3.15;;;0.90;95.70;;;;;;5049926;28;20281;-77
2021/01/19 01:50:45;;;;;;;4.20;3.35;;;1.00;95.80;;;;;;5050375;28;20235;-77
2021/01/19 01:53:13;;;;;;;4.50;3.50;;;1.00;95.50;;;;;;5050444;28;20203;-77
2021/01/19 01:55:40;;;;;;;4.75;3.35;;;1.10;95.60;;;;;;5050112;28;20200;-77
2021/01/19 01:58:06;;;;;;;3.75;3.45;;;1.10;95.50;;;;;;5049574;28;20551;-77
2021/01/19 02:00:42;;;;;;;5.70;3.70;;;1.20;95.40;;;;;;5107062;27;21373;-77
2021/01/19 02:03:09;;;;;;;5.97;4.00;;;1.00;95.10;;;;;;5107407;28;20666;-77
2021/01/19 02:05:38;;;;;;;7.82;4.10;;;0.90;95.10;;;;;;5106276;28;20243;-77
2021/01/19 02:08:14;;;;;;;5.25;3.78;;;0.90;95.20;;;;;;5106159;28;20575;-77
2021/01/19 02:10:58;;;;;;;4.70;3.45;;;1.10;95.40;;;;;;5106736;28;20578;-76
2021/01/19 02:13:35;;;;;;;5.93;4.00;;;1.20;95.20;;;;;;5105329;28;20208;-77
2021/01/19 02:16:15;;;;;;;6.20;4.03;;;1.10;94.90;;;;;;5099989;28;20202;-76
2021/01/19 02:18:56;;;;;;;5.95;4.00;;;1.00;95.00;;;;;;5102676;28;20220;-77
2021/01/19 02:21:55;;;;;;;3.95;3.65;;;1.20;95.30;;;;;;5106922;28;20194;-77
2021/01/19 02:24:34;;;;;;;3.15;2.80;;;1.30;95.30;;;;;;5101786;28;20564;-77
2021/01/19 02:27:38;;;;;;;4.45;3.30;;;1.30;95.00;;;;;;5106365;28;20234;-76
2021/01/19 02:30:11;;;;;;;5.38;3.45;;;1.40;95.00;;;;;;5097001;28;20658;-77
2021/01/19 02:32:53;;;;;;;6.55;3.53;;;1.40;94.70;;;;;;5106217;28;20206;-76
2021/01/19 02:35:24;;;;;;;7.15;3.38;;;1.30;94.30;;;;;;5105273;28;20190;-77
2021/01/19 02:38:00;;;;;;;4.45;3.20;;;1.20;94.40;;;;;;5105876;28;20612;-76
2021/01/19 02:40:28;;;;;;;7.88;3.22;;;1.30;94.70;;;;;;5106225;28;20590;-77
2021/01/19 02:43:09;;;;;;;3.20;2.90;;;1.30;94.70;;;;;;5106566;28;20655;-76
2021/01/19 02:45:39;;;;;;;3.80;2.97;;;1.20;94.40;;;;;;5106016;28;20201;-76
2021/01/19 02:48:08;;;;;;;4.38;3.20;;;1.30;94.70;;;;;;5105688;28;20198;-76
2021/01/19 02:50:36;;;;;;;2.90;2.58;;;1.40;94.60;;;;;;5106740;28;20273;-76
2021/01/19 02:53:06;;;;;;;4.00;3.65;;;1.50;94.60;;;;;;5106658;28;20208;-77
2021/01/19 02:55:34;;;;;;;2.97;2.42;;;1.50;94.40;;;;;;5106424;28;20202;-76
2021/01/19 02:58:06;;;;;;;4.72;3.90;;;1.70;94.50;;;;;;5106349;28;20237;-77
2021/01/19 03:00:45;;;;;;;3.65;3.30;;;1.70;94.30;;;;;;5106130;28;20267;-76
2021/01/19 03:03:14;;;;;;;3.95;3.47;;;1.80;94.40;;;;;;5106615;28;20247;-76
2021/01/19 03:05:43;;;;;;;4.25;3.45;;;1.90;94.50;;;;;;5106260;28;20209;-77
2021/01/19 03:08:11;;;;;;;4.45;3.30;;;2.00;94.10;;;;;;5106227;28;20258;-77
2021/01/19 03:10:41;;;;;;;6.90;3.28;;;2.00;93.80;;;;;;5100259;28;20198;-76
2021/01/19 03:13:12;;;;;;;3.97;3.17;;;2.10;93.70;;;;;;5092811;28;20642;-76
2021/01/19 03:15:38;;;;;;;4.65;3.25;;;2.10;93.60;;;;;;5092520;28;20226;-76
2021/01/19 03:18:05;;;;;;;3.22;2.92;;;2.10;93.50;;;;;;5072514;28;20199;-76
2021/01/19 03:20:32;;;;;;;5.40;3.38;;;2.10;93.40;;;;;;5092097;28;20222;-77
2021/01/19 03:22:59;;;;;;;3.40;3.08;;;2.00;93.50;;;;;;5091289;28;20197;-76
2021/01/19 03:25:26;;;;;;;3.50;3.20;;;2.00;93.40;;;;;;5091809;28;20191;-77
2021/01/19 03:27:52;;;;;;;2.95;2.70;;;2.10;93.40;;;;;;5091546;28;20221;-76
2021/01/19 03:30:19;;;;;;;3.70;3.08;;;1.80;93.10;;;;;;5092283;28;20240;-76
2021/01/19 03:32:46;;;;;;;3.47;2.70;;;1.90;93.80;;;;;;5092189;28;20199;-76
2021/01/19 03:35:12;;;;;;;3.22;2.85;;;2.00;93.80;;;;;;5092318;28;20206;-76
2021/01/19 03:37:40;;;;;;;3.20;3.00;;;1.90;93.30;;;;;;5091680;28;20198;-76
2021/01/19 03:40:07;;;;;;;3.33;3.00;;;2.10;93.50;;;;;;5091400;28;20293;-76
2021/01/19 03:42:34;;;;;;;2.58;2.33;;;2.10;93.20;;;;;;5092069;28;20198;-76
2021/01/19 03:45:00;;;;;;;2.83;2.63;;;2.10;93.30;;;;;;5091809;28;20664;-77
2021/01/19 03:47:27;;;;;;;4.10;3.20;;;1.80;93.20;;;;;;5091803;28;20301;-76
2021/01/19 03:49:53;;;;;;;3.40;3.10;;;2.00;93.80;;;;;;5091966;28;20245;-76
2021/01/19 03:52:19;;;;;;;3.17;2.88;;;1.90;93.40;;;;;;5091557;28;20265;-76
2021/01/19 03:54:47;;;;;;;2.85;2.65;;;2.10;93.60;;;;;;5091251;28;20226;-77
2021/01/19 03:57:13;;;;;;;4.22;2.80;;;2.20;93.30;;;;;;5091578;28;20198;-76
2021/01/19 03:59:39;;;;;;;3.65;3.35;;;2.10;93.30;;;;;;5091263;28;20218;-77
2021/01/19 04:02:06;;;;;;;4.90;3.33;;;2.00;93.30;;;;;;5092269;28;20604;-76
2021/01/19 04:04:32;;;;;;;2.53;2.33;;;1.90;93.30;;;;;;5091352;28;20304;-77
2021/01/19 04:06:58;;;;;;;4.72;3.30;;;1.90;93.40;;;;;;5091039;28;20202;-76
2021/01/19 04:09:25;;;;;;;3.58;2.90;;;1.80;93.40;;;;;;5091637;28;20222;-77
2021/01/19 04:11:52;;;;;;;3.35;3.15;;;1.80;93.00;;;;;;5091997;28;20558;-76
2021/01/19 04:14:18;;;;;;;4.30;2.67;;;1.80;93.60;;;;;;5091583;28;20226;-76
2021/01/19 04:16:45;;;;;;;3.10;2.83;;;1.70;93.40;;;;;;5091197;28;20226;-76
2021/01/19 04:19:11;;;;;;;3.30;3.00;;;1.50;93.60;;;;;;5090324;28;20299;-76
2021/01/19 04:21:39;;;;;;;4.28;2.80;;;1.70;93.90;;;;;;5090508;28;20243;-76
2021/01/19 04:24:06;;;;;;;2.72;2.38;;;1.80;93.70;;;;;;5090543;28;20552;-77
2021/01/19 04:26:33;;;;;;;3.55;2.85;;;1.90;93.40;;;;;;5091356;28;20203;-77
2021/01/19 04:29:00;;;;;;;5.13;2.63;;;1.60;93.20;;;;;;5090602;28;20255;-76
2021/01/19 04:31:27;;;;;;;3.00;2.75;;;1.70;93.50;;;;;;5091443;28;20682;-77
2021/01/19 04:33:53;;;;;;;5.38;2.50;;;1.70;93.40;;;;;;5091351;28;20194;-76
2021/01/19 04:36:19;;;;;;;3.53;2.30;;;1.40;93.10;;;;;;5090467;28;20233;-76
2021/01/19 04:38:46;;;;;;;3.35;2.65;;;1.50;93.60;;;;;;5090343;28;20218;-76
2021/01/19 04:41:13;;;;;;;3.10;2.90;;;1.60;93.70;;;;;;5091582;28;20606;-77
2021/01/19 04:43:40;;;;;;;6.88;3.97;;;1.80;93.40;;;;;;5090951;28;20195;-76
2021/01/19 04:46:10;;;;;;;4.80;4.07;;;1.80;93.00;;;;;;5090632;28;20194;-76
2021/01/19 04:48:37;;;;;;;5.05;4.07;;;1.70;93.40;;;;;;5089862;28;20195;-76
2021/01/19 04:51:05;;;;;;;3.10;2.75;;;1.70;93.40;;;;;;5091016;28;20239;-76
2021/01/19 04:53:35;;;;;;;3.83;3.13;;;1.70;93.30;;;;;;5090784;28;20780;-77
2021/01/19 04:56:04;;;;;;;3.70;3.38;;;1.80;93.30;;;;;;5091364;28;20186;-76
2021/01/19 04:58:31;;;;;;;6.55;4.25;;;1.90;93.30;;;;;;5089666;28;20224;-77
2021/01/19 05:01:05;;;;;;;5.72;4.03;;;1.80;93.20;;;;;;5071779;28;20210;-76
2021/01/19 05:03:43;;;;;;;3.58;3.28;;;1.70;93.10;;;;;;5090577;28;20573;-76
2021/01/19 05:06:52;;;;;;;4.93;3.10;;;1.70;93.30;;;;;;5090633;28;20190;-76
2021/01/19 05:09:22;;;;;;;3.63;3.30;;;1.60;93.10;;;;;;5056179;28;20206;-76
2021/01/19 05:11:50;;;;;;;4.50;3.22;;;1.40;92.80;;;;;;5090465;28;20202;-76
2021/01/19 05:14:20;;;;;;;5.25;3.30;;;1.40;93.50;;;;;;5089878;28;20237;-76
2021/01/19 05:16:49;;;;;;;4.45;3.30;;;1.60;93.50;;;;;;5090712;28;20264;-76
2021/01/19 05:19:20;;;;;;;3.92;3.20;;;1.60;93.30;;;;;;5084888;28;20304;-76
2021/01/19 05:21:49;;;;;;;3.35;3.05;;;1.40;92.80;;;;;;5089452;28;20244;-76
2021/01/19 05:24:15;;;;;;;4.18;2.85;;;1.50;93.30;;;;;;5089459;28;20213;-76
2021/01/19 05:26:42;;;;;;;4.35;2.47;;;1.60;93.20;;;;;;5090531;28;20199;-76
2021/01/19 05:29:09;;;;;;;3.97;3.08;;;1.30;93.30;;;;;;5089610;28;20290;-76
2021/01/19 05:31:36;;;;;;;6.30;3.25;;;1.20;93.40;;;;;;5090589;28;20234;-77
2021/01/19 05:34:08;;;;;;;3.28;2.78;;;1.30;93.50;;;;;;5089876;28;20234;-77
2021/01/19 05:36:45;;;;;;;3.33;3.03;;;1.40;93.60;;;;;;5089427;28;20198;-77
2021/01/19 05:39:15;;;;;;;3.40;3.10;;;1.30;93.50;;;;;;5089822;28;20261;-77
2021/01/19 05:41:43;;;;;;;3.30;2.97;;;1.10;93.30;;;;;;5089986;28;20651;-77
2021/01/19 05:44:16;;;;;;;4.05;3.15;;;1.00;93.50;;;;;;5089907;28;20183;-77
2021/01/19 05:46:48;;;;;;;3.28;2.97;;;0.90;93.70;;;;;;5089939;28;20222;-77
2021/01/19 05:49:16;;;;;;;3.72;3.38;;;1.10;94.00;;;;;;5085337;28;20213;-77
2021/01/19 05:51:45;;;;;;;5.07;3.50;;;1.10;93.90;;;;;;5090003;28;20198;-77
2021/01/19 05:54:21;;;;;;;4.95;3.72;;;1.10;93.80;;;;;;5089280;28;20195;-77
2021/01/19 05:56:49;;;;;;;8.20;3.85;;;1.00;94.10;;;;;;5089965;28;20202;-77
2021/01/19 05:59:32;;;;;;;4.57;3.17;;;1.10;94.00;;;;;;5088906;28;20305;-77
2021/01/19 06:02:01;;;;;;;5.20;3.90;;;1.20;93.80;;;;;;5088560;28;20687;-77
2021/01/19 06:04:40;;;;;;;4.05;3.25;;;1.30;93.70;;;;;;5089642;28;20198;-77
2021/01/19 06:07:08;;;;;;;3.80;3.30;;;1.20;93.40;;;;;;5089319;28;20202;-77
2021/01/19 06:09:35;;;;;;;5.25;2.65;;;1.20;93.60;;;;;;5089778;28;20201;-77
2021/01/19 06:12:02;;;;;;;6.88;3.70;;;1.20;93.90;;;;;;5089189;28;20219;-78
2021/01/19 06:14:29;;;;;;;4.07;3.40;;;1.20;93.40;;;;;;5089358;28;20198;-77
2021/01/19 06:17:12;;;;;;;3.60;2.92;;;1.20;93.50;;;;;;5089567;28;20580;-77
2021/01/19 06:19:40;;;;;;;4.50;4.03;;;1.30;93.40;;;;;;5087660;28;20219;-77
2021/01/19 06:22:13;;;;;;;5.40;3.65;;;1.20;93.00;;;;;;5088239;28;20222;-77
2021/01/19 06:24:42;;;;;;;7.18;3.70;;;1.00;93.00;;;;;;5089293;28;20194;-77
2021/01/19 06:27:11;;;;;;;5.18;3.03;;;1.10;93.40;;;;;;5089041;28;20780;-77
2021/01/19 06:29:38;;;;;;;4.10;3.22;;;1.00;93.30;;;;;;5089524;28;20670;-78
2021/01/19 06:32:07;;;;;;;4.80;3.53;;;1.00;93.60;;;;;;5089775;28;20596;-77
2021/01/19 06:34:38;;;;;;;3.40;3.10;;;0.90;93.10;;;;;;5089250;28;20199;-77
2021/01/19 06:37:05;;;;;;;4.57;3.75;;;0.90;93.50;;;;;;5089253;28;20247;-78
2021/01/19 06:39:38;;;;;;;4.35;3.95;;;0.60;92.90;;;;;;5089544;28;20296;-78
2021/01/19 06:42:13;;;;;;;3.92;2.97;;;0.50;93.30;;;;;;5089372;28;20195;-78
2021/01/19 06:44:48;;;;;;;5.13;3.67;;;0.60;93.70;;;;;;5089755;28;20538;-78
2021/01/19 06:47:20;;;;;;;6.25;4.22;;;0.70;93.60;;;;;;5091663;28;20186;-78
2021/01/19 06:49:46;;;;;;;2.83;2.63;;;0.70;93.40;;;;;;5093121;28;20244;-78
2021/01/19 06:52:14;;;;;;;3.97;3.55;;;0.50;93.10;;;;;;5093148;28;20695;-78
2021/01/19 06:55:01;;;;;;;6.60;3.28;;;0.60;93.70;;;;;;5092776;28;20194;-78
2021/01/19 06:57:33;;;;;;;4.00;3.65;;;0.70;93.80;;;;;;5081414;28;20191;-79
2021/01/19 07:00:07;;;;;;;4.10;3.13;;;0.70;93.60;;;;;;5083845;28;20222;-78
2021/01/19 07:02:36;;;;;;;3.38;3.10;;;0.70;93.40;;;;;;5092574;28;20638;-78
2021/01/19 07:05:09;;;;;;;3.60;3.28;;;0.70;93.40;;;;;;5092754;28;20262;-78
2021/01/19 07:07:46;;;;;;;5.45;3.33;;;0.70;93.20;;;;;;5092712;28;20206;-79
2021/01/19 07:10:15;;;;;;;5.57;3.47;;;0.70;93.30;;;;;;5078891;28;20202;-78
2021/01/19 07:12:58;;;;;;;9.65;3.80;;;0.60;93.10;;;;;;5093025;28;21016;-78
2021/01/19 07:16:04;;;;;;;4.28;3.88;;;0.60;93.30;;;;;;5093309;28;20581;-78
2021/01/19 07:19:10;;;;;;;5.72;4.38;;;0.40;93.30;;;;;;5092597;28;20191;-79
2021/01/19 07:21:58;;;;;;;7.03;3.88;;;0.40;93.80;;;;;;5089509;28;20572;-78
2021/01/19 07:24:26;;;;;;;3.85;3.25;;;0.50;93.80;;;;;;5090053;28;20235;-78
2021/01/19 07:26:58;;;;;;;3.60;3.28;;;0.50;93.50;;;;;;5091217;28;20290;-78
2021/01/19 07:29:25;;;;;;;3.78;3.42;;;0.70;93.40;;;;;;5092758;28;20230;-78
2021/01/19 07:31:51;;;;;;;5.57;4.10;;;0.70;93.10;;;;;;5092699;28;20190;-79
2021/01/19 07:34:20;;;;;;;12.75;4.60;;;0.70;93.10;;;;;;5092778;28;20198;-78
2021/01/19 07:36:54;;;;;;;5.47;4.88;;;0.50;93.00;;;;;;5094202;28;20676;-79
2021/01/19 07:39:21;;;;;;;4.90;4.40;;;0.60;93.40;;;;;;5092788;28;20869;-78
2021/01/19 07:41:48;;;;;;;6.25;4.85;;;0.60;93.20;;;;;;5092171;28;20194;-79
2021/01/19 07:44:23;;;;;;;5.50;4.43;;;0.50;93.10;;;;;;5092877;28;20667;-80
2021/01/19 07:46:50;;;;;;;5.18;4.68;;;0.50;93.70;;;;;;5093784;28;20195;-79
2021/01/19 07:49:17;;;;;;;8.63;5.30;;;0.60;93.20;;;;;;5093322;28;20203;-79
2021/01/19 07:51:45;;;;;;;5.50;4.18;;;0.70;93.20;;;;;;5094288;28;20199;-79
2021/01/19 07:54:13;;;;;;;4.88;3.58;;;0.90;93.30;;;;;;5092780;28;20195;-79
2021/01/19 07:56:40;;;;;;;3.95;3.53;;;1.00;92.70;;;;;;5093299;28;20663;-79
2021/01/19 07:59:15;;;;;;;6.65;4.13;;;0.80;92.30;;;;;;5092016;28;20230;-79
2021/01/19 08:01:54;;;;;;;5.15;4.18;;;0.80;92.50;;;;;;5092303;28;20867;-79
2021/01/19 08:04:28;;;;;;;4.10;3.75;;;1.00;92.70;;;;;;5092154;28;20202;-79
2021/01/19 08:06:54;;;;;;;5.25;4.00;;;1.30;92.80;;;;;;5091814;28;20293;-79
2021/01/19 08:09:21;;;;;;;6.40;4.45;;;1.20;92.00;;;;;;5092031;28;20209;-79
2021/01/19 08:12:01;;;;;;;7.97;3.85;;;1.30;92.20;;;;;;5092290;28;20198;-79
2021/01/19 08:14:34;;;;;;;5.65;4.82;;;1.40;92.10;;;;;;5089664;28;20198;-79
2021/01/19 08:17:04;;;;;;;6.40;5.25;;;1.60;92.10;;;;;;5089648;28;20324;-79
2021/01/19 08:19:36;;;;;;;6.65;5.00;;;1.80;92.00;;;;;;5089377;28;20772;-79
2021/01/19 08:22:03;;;;;;;7.93;5.50;;;1.90;91.80;;;;;;5086786;28;20345;-79
2021/01/19 08:24:30;;;;;;;6.68;4.32;;;2.10;91.50;;;;;;5086239;28;20195;-79
2021/01/19 08:26:57;;;;;;;6.35;5.10;;;2.10;90.80;;;;;;5091450;28;20206;-79
2021/01/19 08:29:24;;;;;;;4.57;4.15;;;2.00;91.00;;;;;;5087876;28;20206;-79
2021/01/19 08:31:53;;;;;;;5.75;4.82;;;2.10;91.00;;;;;;5090419;28;20231;-80
2021/01/19 08:34:21;;;;;;;7.95;4.50;;;2.20;90.70;;;;;;5090337;28;20191;-80
2021/01/19 08:36:49;;;;;;;5.10;4.25;;;2.20;90.50;;;;;;5088039;28;20191;-79
2021/01/19 08:39:17;;;;;;;7.88;4.65;;;2.30;90.60;;;;;;5089374;28;20226;-79
2021/01/19 08:41:45;;;;;;;6.22;4.85;;;2.30;90.30;;;;;;5090310;28;20194;-79
2021/01/19 08:44:12;;;;;;;6.03;4.75;;;2.40;90.50;;;;;;5088879;28;20198;-79
2021/01/19 08:46:40;;;;;;;6.00;4.70;;;2.50;90.40;;;;;;5089982;28;20203;-79
2021/01/19 08:49:08;;;;;;;5.10;4.43;;;2.60;90.40;;;;;;5086823;28;20195;-80
2021/01/19 08:51:36;;;;;;;3.97;3.58;;;2.90;90.00;;;;;;5089991;28;20203;-78
2021/01/19 08:54:08;;;;;;;5.50;4.10;;;2.70;89.40;;;;;;5090568;28;20202;-79
2021/01/19 08:56:38;;;;;;;4.03;3.13;;;2.60;90.00;;;;;;5090863;28;20550;-80
2021/01/19 08:59:05;;;;;;;4.82;4.05;;;2.60;89.60;;;;;;5089574;28;20201;-80
2021/01/19 09:01:31;;;;;;;6.72;4.40;;;2.60;88.80;;;;;;5090804;28;20202;-79
2021/01/19 09:03:59;;;;;;;6.25;4.50;;;2.70;89.90;;;;;;5090123;28;20191;-79
2021/01/19 09:06:26;;;;;;;4.18;3.78;;;2.80;89.90;;;;;;5090445;28;20187;-79
2021/01/19 09:09:01;;;;;;;6.60;4.30;;;2.60;90.20;;;;;;5089007;28;20700;-79
2021/01/19 09:11:30;;;;;;;5.57;4.95;;;2.70;90.30;;;;;;5071645;28;20563;-80
2021/01/19 09:14:03;;;;;;;5.68;4.82;;;2.70;90.10;;;;;;5084930;28;20190;-79
2021/01/19 09:16:31;;;;;;;5.75;4.32;;;2.90;90.20;;;;;;5090981;28;20198;-80
2021/01/19 09:19:00;;;;;;;4.25;3.38;;;3.00;90.00;;;;;;5082863;28;20214;-79
2021/01/19 09:21:27;;;;;;;10.10;4.80;;;2.80;89.70;;;;;;5086823;28;20267;-79
2021/01/19 09:23:54;;;;;;;4.32;3.80;;;2.60;88.40;;;;;;5090128;28;20199;-80
2021/01/19 09:26:22;;;;;;;6.28;4.40;;;2.80;89.80;;;;;;5082248;28;20294;-80
2021/01/19 09:28:52;;;;;;;5.85;4.25;;;2.70;89.80;;;;;;5070243;28;20194;-79
2021/01/19 09:31:20;;;;;;;11.25;5.07;;;2.80;89.60;;;;;;5070053;28;20215;-80
2021/01/19 09:33:52;;;;;;;9.13;4.68;;;2.90;90.20;;;;;;5075553;28;20217;-78
2021/01/19 09:36:19;;;;;;;6.40;4.50;;;2.70;89.20;;;;;;5080855;28;20183;-79
2021/01/19 09:38:49;;;;;;;4.95;3.78;;;3.00;90.30;;;;;;5076260;28;20282;-79
2021/01/19 09:41:17;;;;;;;4.50;4.07;;;3.10;89.20;;;;;;5081775;28;20194;-79
2021/01/19 09:43:53;;;;;;;5.78;4.05;;;2.70;90.00;;;;;;5076288;28;20200;-79
2021/01/19 09:46:23;;;;;;;6.53;4.53;;;2.60;90.60;;;;;;5076965;28;20191;-79
2021/01/19 09:48:52;;;;;;;6.25;4.05;;;2.70;90.60;;;;;;5078460;28;20558;-79
2021/01/19 09:51:25;;;;;;;6.32;4.05;;;2.40;90.60;;;;;;5080673;28;20211;-79
2021/01/19 09:53:55;;;;;;;6.88;4.32;;;2.50;90.90;;;;;;5079107;28;20198;-78
2021/01/19 09:56:21;;;;;;;9.50;4.07;;;2.50;91.20;;;;;;5069980;28;20802;-79
2021/01/19 09:59:00;;;;;;;7.25;3.75;;;2.70;91.10;;;;;;5069689;28;20195;-79
2021/01/19 10:01:31;;;;;;;6.40;3.90;;;2.70;90.70;;;;;;5080489;28;20206;-80
2021/01/19 10:03:58;;;;;;;7.53;3.50;;;2.90;91.20;;;;;;5075727;28;20331;-80
2021/01/19 10:06:26;;;;;;;5.43;3.97;;;3.10;91.00;;;;;;5076937;28;20187;-80
2021/01/19 10:08:53;;;;;;;3.92;3.45;;;3.00;90.80;;;;;;5080487;28;20191;-79
2021/01/19 10:11:37;;;;;;;9.63;4.13;;;3.00;90.80;;;;;;5079911;28;20248;-79
2021/01/19 10:14:17;;;;;;;4.68;3.83;;;2.90;91.00;;;;;;5069743;28;20218;-79
2021/01/19 10:16:46;;;;;;;8.68;3.55;;;3.00;91.70;;;;;;5070130;28;20208;-80
2021/01/19 10:19:20;;;;;;;5.65;4.20;;;2.90;91.00;;;;;;5070279;28;20222;-80
2021/01/19 10:21:50;;;;;;;8.27;3.97;;;2.90;91.10;;;;;;5073220;28;20219;-79
2021/01/19 10:24:17;;;;;;;5.30;4.45;;;2.90;91.20;;;;;;5073622;28;20684;-79
2021/01/19 10:26:59;;;;;;;5.70;5.07;;;3.20;91.10;;;;;;5086892;28;20198;-79
2021/01/19 10:29:28;;;;;;;7.07;4.78;;;3.40;90.40;;;;;;5080110;28;20219;-79
2021/01/19 10:31:59;;;;;;;10.75;5.00;;;3.10;90.10;;;;;;5082124;28;20194;-79
2021/01/19 10:34:27;;;;;;;5.30;3.70;;;3.20;90.90;;;;;;5093820;28;20201;-79
2021/01/19 10:36:54;;;;;;;5.70;5.00;;;3.20;90.90;;;;;;5086459;28;20203;-79
2021/01/19 10:39:21;;;;;;;5.55;3.80;;;3.30;90.90;;;;;;5085467;28;20198;-79
2021/01/19 10:41:48;;;;;;;3.95;3.55;;;3.40;90.80;;;;;;5088626;28;20195;-79
2021/01/19 10:44:15;;;;;;;10.95;8.30;;;3.60;90.80;;;;;;5086480;28;20194;-80
2021/01/19 10:46:44;;;;;;;11.68;4.32;;;3.60;90.70;;;;;;5092086;28;20187;-79
2021/01/19 10:49:12;;;;;;;8.50;7.35;;;3.70;90.80;;;;;;5083806;28;20917;-79
2021/01/19 10:51:42;;;;;;;5.93;4.13;;;3.80;90.50;;;;;;5082061;28;20194;-80
2021/01/19 10:54:14;;;;;;;7.95;5.78;;;3.70;90.30;;;;;;5085662;28;20212;-80
2021/01/19 10:56:42;;;;;;;5.22;4.70;;;3.70;90.40;;;;;;5075980;28;20202;-79
2021/01/19 10:59:11;;;;;;;6.88;6.10;;;3.90;90.50;;;;;;5088496;28;20680;-80
2021/01/19 11:01:38;;;;;;;6.13;4.70;;;4.00;90.30;;;;;;5093452;28;20259;-79
2021/01/19 11:04:07;;;;;;;6.40;3.30;;;3.80;90.10;;;;;;5081349;28;20191;-80
2021/01/19 11:06:36;;;;;;;5.05;4.05;;;3.50;89.60;;;;;;5088179;28;20187;-80
2021/01/19 11:09:04;;;;;;;7.70;4.20;;;3.70;90.50;;;;;;5076703;28;20715;-79
2021/01/19 11:11:35;;;;;;;6.68;4.53;;;3.70;90.20;;;;;;5088668;28;20225;-80
2021/01/19 11:14:04;;;;;;;5.40;3.75;;;3.40;89.90;;;;;;5086614;28;20199;-80
2021/01/19 11:16:31;;;;;;;4.03;3.65;;;3.60;90.80;;;;;;5077968;28;20198;-80
2021/01/19 11:19:02;;;;;;;8.18;4.45;;;3.70;90.10;;;;;;5092954;28;20198;-80
2021/01/19 11:21:30;;;;;;;6.25;4.40;;;3.70;90.30;;;;;;5085757;28;20656;-79
2021/01/19 11:23:58;;;;;;;4.75;4.18;;;3.70;90.20;;;;;;5090229;28;20196;-80
2021/01/19 11:26:32;;;;;;;6.13;4.07;;;3.70;90.30;;;;;;5079011;28;20207;-79
2021/01/19 11:28:59;;;;;;;5.25;4.07;;;3.70;90.00;;;;;;5081253;28;20623;-79
2021/01/19 11:31:27;;;;;;;8.98;4.40;;;3.50;90.10;;;;;;5082598;28;20218;-80
2021/01/19 11:33:54;;;;;;;4.95;3.83;;;3.60;90.20;;;;;;5092117;28;20203;-80
2021/01/19 11:36:23;;;;;;;5.93;3.90;;;3.40;89.90;;;;;;5093032;28;20202;-79
2021/01/19 11:38:51;;;;;;;6.05;4.22;;;3.50;89.90;;;;;;5081947;28;20648;-79
2021/01/19 11:41:18;;;;;;;11.18;4.20;;;3.50;90.20;;;;;;5077778;28;20191;-80
2021/01/19 11:43:45;;;;;;;7.90;3.80;;;3.70;90.00;;;;;;5076843;28;20195;-80
2021/01/19 11:46:12;;;;;;;6.00;4.00;;;3.70;89.00;;;;;;5074551;28;20679;-79
2021/01/19 11:48:38;;;;;;;3.38;3.08;;;3.70;89.70;;;;;;5073069;28;20223;-79
2021/01/19 11:51:05;;;;;;;7.18;4.10;;;3.70;90.10;;;;;;5078380;28;20231;-79
2021/01/19 11:53:31;;;;;;;4.75;3.40;;;3.80;89.70;;;;;;5072837;28;20660;-80
2021/01/19 11:56:02;;;;;;;9.13;4.05;;;4.00;89.90;;;;;;5081907;28;20190;-79
2021/01/19 11:58:29;;;;;;;5.72;4.07;;;3.90;88.20;;;;;;5085451;28;20634;-79
2021/01/19 12:00:55;;;;;;;7.80;4.47;;;3.90;89.10;;;;;;5086535;28;20595;-80
2021/01/19 12:03:22;;;;;;;6.43;4.10;;;4.00;88.90;;;;;;5092554;28;20195;-79
2021/01/19 12:05:49;;;;;;;5.50;4.40;;;4.00;88.80;;;;;;5091036;28;20597;-79
2021/01/19 12:08:37;;;;;;;6.22;3.47;;;3.90;88.70;;;;;;5090184;28;20552;-80
2021/01/19 12:11:06;;;;;;;6.28;3.75;;;4.10;89.00;;;;;;5090445;28;20238;-80
2021/01/19 12:13:33;;;;;;;4.07;3.50;;;4.00;88.00;;;;;;5092422;28;20260;-80
2021/01/19 12:15:59;;;;;;;5.85;4.32;;;4.10;89.30;;;;;;5090261;28;20211;-79
2021/01/19 12:18:26;;;;;;;4.75;4.32;;;4.20;89.00;;;;;;5089604;28;20190;-79
2021/01/19 12:20:52;;;;;;;8.95;5.10;;;4.10;88.80;;;;;;5078186;28;20564;-80
2021/01/19 12:23:19;;;;;;;7.40;5.00;;;4.20;88.60;;;;;;5072435;28;20195;-80
2021/01/19 12:25:47;;;;;;;5.20;4.35;;;4.30;88.30;;;;;;5078133;28;20211;-79
2021/01/19 12:28:15;;;;;;;4.13;3.70;;;4.40;88.60;;;;;;5071864;28;20203;-79
2021/01/19 12:30:43;;;;;;;8.70;5.25;;;4.40;87.40;;;;;;5083470;28;20215;-79
2021/01/19 12:33:10;;;;;;;4.03;3.72;;;4.30;87.10;;;;;;5090902;28;20237;-80
2021/01/19 12:35:36;;;;;;;4.00;3.50;;;4.40;88.20;;;;;;5080265;28;20549;-80
2021/01/19 12:38:03;;;;;;;3.10;2.75;;;4.10;86.20;;;;;;5070796;28;20214;-78
2021/01/19 12:40:29;;;;;;;4.70;3.50;;;4.10;88.30;;;;;;5080122;28;20199;-80
2021/01/19 12:42:56;;;;;;;4.93;3.28;;;4.10;87.90;;;;;;5070924;28;20256;-79
2021/01/19 12:45:24;;;;;;;5.15;4.05;;;4.10;87.80;;;;;;5080488;28;20221;-79
2021/01/19 12:47:50;;;;;;;4.88;3.80;;;4.20;88.00;;;;;;5070465;28;20196;-79
2021/01/19 12:50:17;;;;;;;4.10;3.08;;;4.30;88.20;;;;;;5080250;28;20231;-79
2021/01/19 12:52:44;;;;;;;4.35;3.95;;;4.20;87.70;;;;;;5070272;28;20195;-79
2021/01/19 12:55:11;;;;;;;7.78;3.70;;;4.10;88.60;;;;;;5071895;28;20215;-79
2021/01/19 12:57:38;;;;;;;3.65;2.53;;;4.10;90.00;;;;;;5082883;28;20199;-79
2021/01/19 13:00:06;;;;;;;4.43;3.33;;;4.10;90.10;;;;;;5083724;28;20216;-79
2021/01/19 13:02:34;;;;;;;3.45;3.15;;;4.10;90.60;;;;;;5090925;28;20203;-79
2021/01/19 13:05:02;;;;;;;4.78;3.80;;;4.00;91.60;;;;;;5078781;28;20192;-78
2021/01/19 13:07:28;;;;;;;3.75;3.40;;;3.70;91.70;;;;;;5072486;28;20191;-79
2021/01/19 13:09:55;;;;;;;7.35;4.35;;;3.60;92.40;;;;;;5074489;28;20218;-79